Lawton, Oklahoma
Current Conditions -  °F | °C
As of 2:58 PM on Thursday 20 Nov 2014 (Local Time) from KFSI Reporting Station
Clear Clear  
Wind Chill: 63°   Ceiling: Unl
Heat Index: 63°   Visibility: 10mi
Dew Point: 39°   Wind: 9mph
Humidity: 42%   Direction: 160°SSE
Pressure: 29.96"   Gusts: NA
Location:  34.61°N, 98.39°W
Report Text: KFSI 202058Z AUTO 16008KT 10SM CLR 17/04 A2996 RMK AO2 SLP146 T01710041 57024
Loading
Personal Weather Stations






























Interactive Weather Map New forecast layout! Learn more

10-Day Weather Forecast

Advertisements
Track Severe Weather on mobile